Time;durP1;ratioP1;P1;durP2;ratioP2;P2;SDS_P1;SDS_P2;PMS_P1;PMS_P2;Temp;Humidity;BMP_temperature;BMP_pressure;BME280_temperature;BME280_humidity;BME280_pressure;Samples;Min_cycle;Max_cycle;Signal;HPM_P1;HPM_P2
2022/08/21 00:02:21;;;;;;;73.83;10.90;;;19.70;89.70;;;;;;5065441;28;20825;-86
2022/08/21 00:04:47;;;;;;;69.00;10.73;;;19.60;90.00;;;;;;5065043;28;20409;-86
2022/08/21 00:07:17;;;;;;;76.17;10.97;;;19.60;89.90;;;;;;5082981;28;20851;-86
2022/08/21 00:09:43;;;;;;;72.60;12.77;;;19.60;90.70;;;;;;5048861;28;20410;-86
2022/08/21 00:12:10;;;;;;;73.67;12.03;;;19.50;91.20;;;;;;5083252;28;20476;-86
2022/08/21 00:14:36;;;;;;;75.77;12.30;;;19.50;91.10;;;;;;5064955;28;20403;-86
2022/08/21 00:17:05;;;;;;;74.70;13.80;;;19.50;91.60;;;;;;5064162;28;20426;-86
2022/08/21 00:19:32;;;;;;;75.53;13.03;;;19.40;91.80;;;;;;5064951;28;20448;-86
2022/08/21 00:21:57;;;;;;;76.70;11.70;;;19.40;92.10;;;;;;5082510;28;20409;-86
2022/08/21 00:24:24;;;;;;;71.10;13.27;;;19.40;91.90;;;;;;5064037;28;20416;-86
2022/08/21 00:26:51;;;;;;;72.77;12.40;;;19.40;92.10;;;;;;5082284;28;20219;-86
2022/08/21 00:29:17;;;;;;;72.73;12.47;;;19.40;92.20;;;;;;5064466;28;20531;-86
2022/08/21 00:31:43;;;;;;;74.10;12.17;;;19.30;92.00;;;;;;5082731;28;20429;-86
2022/08/21 00:34:10;;;;;;;72.10;12.80;;;19.30;92.90;;;;;;5064040;28;20418;-86
2022/08/21 00:36:37;;;;;;;72.93;13.80;;;19.30;92.10;;;;;;5082235;28;20452;-86
2022/08/21 00:39:06;;;;;;;74.83;13.30;;;19.30;91.80;;;;;;5081790;28;20426;-86
2022/08/21 00:41:32;;;;;;;74.83;13.90;;;19.30;91.60;;;;;;5081669;28;20908;-86
2022/08/21 00:43:57;;;;;;;74.77;13.70;;;19.20;92.00;;;;;;5064162;28;20428;-84
2022/08/21 00:46:24;;;;;;;74.50;14.57;;;19.20;93.40;;;;;;5063961;28;20204;-84
2022/08/21 00:48:50;;;;;;;74.07;13.20;;;19.10;93.50;;;;;;5064001;28;20821;-86
2022/08/21 00:51:27;;;;;;;72.60;13.10;;;19.10;93.20;;;;;;5063894;28;20407;-86
2022/08/21 00:53:56;;;;;;;71.97;14.33;;;19.10;93.80;;;;;;5082223;28;20162;-86
2022/08/21 00:56:23;;;;;;;72.00;14.30;;;19.00;94.10;;;;;;5081262;28;20414;-86
2022/08/21 00:58:51;;;;;;;69.37;12.90;;;19.00;94.50;;;;;;5081749;28;20488;-86
2022/08/21 01:01:17;;;;;;;75.53;15.37;;;19.00;95.10;;;;;;5047350;28;20407;-86
2022/08/21 01:03:43;;;;;;;73.17;14.33;;;19.00;95.20;;;;;;5080885;28;20974;-85
2022/08/21 01:06:09;;;;;;;74.30;15.00;;;18.90;95.80;;;;;;5082005;28;20469;-86
2022/08/21 01:08:35;;;;;;;75.70;14.70;;;18.90;96.00;;;;;;5081144;28;20466;-86
2022/08/21 01:11:02;;;;;;;72.87;15.33;;;18.90;95.40;;;;;;5062848;28;20765;-86
2022/08/21 01:13:31;;;;;;;77.07;16.23;;;18.90;94.90;;;;;;5063105;28;20450;-87
2022/08/21 01:15:59;;;;;;;74.77;15.10;;;18.90;94.50;;;;;;5081091;28;20418;-86
2022/08/21 01:18:27;;;;;;;73.50;15.03;;;18.90;94.20;;;;;;5063416;28;20415;-86
2022/08/21 01:20:58;;;;;;;72.70;14.30;;;18.80;94.60;;;;;;5080628;28;20433;-86
2022/08/21 01:23:24;;;;;;;73.13;13.87;;;18.80;95.30;;;;;;5062852;28;20781;-85
2022/08/21 01:25:50;;;;;;;73.60;15.30;;;18.80;95.80;;;;;;5062901;28;20410;-86
2022/08/21 01:28:16;;;;;;;74.20;14.13;;;18.80;95.40;;;;;;5063634;28;20226;-86
2022/08/21 01:30:43;;;;;;;76.20;13.53;;;18.70;95.70;;;;;;5062339;28;20171;-86
2022/08/21 01:33:09;;;;;;;73.97;14.77;;;18.80;94.90;;;;;;5080570;28;20179;-86
2022/08/21 01:35:36;;;;;;;73.33;14.50;;;18.70;95.70;;;;;;5063136;28;20406;-86
2022/08/21 01:38:02;;;;;;;76.07;13.10;;;18.70;96.10;;;;;;5080453;28;20430;-86
2022/08/21 01:40:27;;;;;;;72.93;13.93;;;18.60;96.40;;;;;;5080179;28;20416;-86
2022/08/21 01:42:53;;;;;;;73.77;12.40;;;18.70;96.00;;;;;;5062532;28;20851;-86
2022/08/21 01:45:19;;;;;;;78.57;15.40;;;18.70;95.30;;;;;;5062300;28;20187;-86
2022/08/21 01:47:45;;;;;;;71.50;13.20;;;18.70;94.40;;;;;;5079919;28;20188;-86
2022/08/21 01:50:15;;;;;;;74.00;13.80;;;18.60;94.90;;;;;;5080290;28;20406;-86
2022/08/21 01:52:41;;;;;;;76.10;16.33;;;18.60;94.50;;;;;;5062970;28;20174;-86
2022/08/21 01:55:12;;;;;;;72.17;13.07;;;18.60;94.20;;;;;;5079842;28;20390;-86
2022/08/21 01:57:38;;;;;;;74.53;13.40;;;18.50;94.50;;;;;;5062059;28;20463;-86
2022/08/21 02:00:09;;;;;;;73.13;11.90;;;18.50;95.90;;;;;;5062309;28;20430;-86
2022/08/21 02:02:35;;;;;;;74.07;15.23;;;18.50;95.60;;;;;;5063393;28;20478;-86
2022/08/21 02:05:01;;;;;;;74.73;12.90;;;18.50;94.80;;;;;;5061590;28;20441;-86
2022/08/21 02:07:26;;;;;;;74.30;13.63;;;18.40;94.50;;;;;;5062217;28;20659;-86
2022/08/21 02:09:52;;;;;;;76.50;12.77;;;18.40;95.00;;;;;;5080314;28;20164;-86
2022/08/21 02:12:18;;;;;;;71.27;13.03;;;18.30;95.50;;;;;;5080580;28;20160;-86
2022/08/21 02:14:43;;;;;;;72.67;13.50;;;18.30;96.50;;;;;;5079536;28;20695;-86
2022/08/21 02:17:09;;;;;;;71.00;12.13;;;18.30;96.30;;;;;;5079483;28;20184;-86
2022/08/21 02:19:35;;;;;;;72.80;12.83;;;18.30;95.50;;;;;;5080388;28;20599;-86
2022/08/21 02:22:00;;;;;;;70.40;12.37;;;18.30;95.20;;;;;;5080377;28;20160;-86
2022/08/21 02:24:26;;;;;;;72.97;13.17;;;18.20;94.70;;;;;;5079556;28;20403;-86
2022/08/21 02:26:52;;;;;;;71.20;13.23;;;18.20;96.20;;;;;;5061732;28;20187;-86
2022/08/21 02:29:17;;;;;;;72.43;12.10;;;18.20;94.70;;;;;;5061659;28;20200;-86
2022/08/21 02:31:43;;;;;;;71.37;12.17;;;18.20;95.10;;;;;;5079893;28;20319;-85
2022/08/21 02:34:09;;;;;;;70.20;12.07;;;18.20;95.40;;;;;;5061526;28;20628;-86
2022/08/21 02:36:34;;;;;;;74.30;12.73;;;18.20;94.90;;;;;;5079258;28;20258;-86
2022/08/21 02:39:00;;;;;;;70.57;12.60;;;18.10;94.70;;;;;;5079869;28;20742;-86
2022/08/21 02:41:26;;;;;;;75.40;13.70;;;18.10;95.20;;;;;;5063029;28;20183;-86
2022/08/21 02:43:52;;;;;;;72.50;11.83;;;18.10;94.70;;;;;;5085205;28;20167;-86
2022/08/21 02:46:19;;;;;;;77.77;12.10;;;18.10;94.90;;;;;;5064592;28;20279;-86
2022/08/21 02:48:46;;;;;;;73.70;12.90;;;18.00;95.10;;;;;;5062313;28;20184;-86
2022/08/21 02:51:15;;;;;;;75.00;11.80;;;18.00;94.90;;;;;;5079457;28;20406;-86
2022/08/21 02:53:42;;;;;;;70.57;12.30;;;18.00;94.70;;;;;;5080255;28;20459;-86
2022/08/21 02:56:11;;;;;;;74.70;12.27;;;18.00;94.80;;;;;;5079771;28;20908;-86
2022/08/21 02:58:41;;;;;;;71.90;15.17;;;17.90;95.40;;;;;;5079613;28;20909;-86
2022/08/21 03:01:09;;;;;;;73.07;13.83;;;17.90;96.30;;;;;;5061832;28;20753;-86
2022/08/21 03:03:36;;;;;;;73.67;15.10;;;17.80;96.90;;;;;;5079706;28;20434;-86
2022/08/21 03:06:03;;;;;;;153.20;16.80;;;17.80;97.20;;;;;;5061527;28;20406;-86
2022/08/21 03:08:29;;;;;;;73.90;13.30;;;17.80;97.50;;;;;;5079233;28;20970;-86
2022/08/21 03:11:00;;;;;;;70.97;13.20;;;17.80;96.70;;;;;;5079334;28;20434;-86
2022/08/21 03:13:27;;;;;;;76.47;15.63;;;17.70;97.40;;;;;;5060832;28;20179;-86
2022/08/21 03:15:53;;;;;;;70.10;13.00;;;17.80;96.80;;;;;;5061733;28;20441;-86
2022/08/21 03:18:19;;;;;;;74.60;14.17;;;17.80;96.40;;;;;;5079130;28;20405;-86
2022/08/21 03:20:46;;;;;;;73.20;12.70;;;17.70;96.30;;;;;;5079717;28;20167;-86
2022/08/21 03:23:13;;;;;;;76.70;17.60;;;17.70;96.70;;;;;;5079112;28;20485;-86
2022/08/21 03:25:40;;;;;;;72.50;14.10;;;17.70;96.80;;;;;;5060990;28;20414;-86
2022/08/21 03:28:09;;;;;;;73.43;15.77;;;17.60;97.40;;;;;;5082355;28;20449;-86
2022/08/21 03:30:35;;;;;;;75.13;16.43;;;17.70;96.80;;;;;;5064947;28;20484;-86
2022/08/21 03:33:01;;;;;;;73.20;15.27;;;17.60;97.50;;;;;;5135427;22;20481;-85
2022/08/21 03:35:27;;;;;;;74.97;16.97;;;17.60;97.30;;;;;;5086509;28;20167;-85
2022/08/21 03:37:54;;;;;;;70.03;16.70;;;17.50;97.90;;;;;;5086952;28;20414;-85
2022/08/21 03:40:20;;;;;;;72.67;16.27;;;17.50;97.70;;;;;;5082278;28;20405;-85
2022/08/21 03:42:46;;;;;;;71.60;14.27;;;17.50;97.40;;;;;;5082400;28;20399;-85
2022/08/21 03:45:13;;;;;;;77.00;18.50;;;17.50;97.30;;;;;;5064551;28;20402;-85
2022/08/21 03:47:49;;;;;;;72.80;15.10;;;17.50;97.90;;;;;;5086061;28;20457;-85
2022/08/21 03:50:17;;;;;;;78.40;16.77;;;17.50;97.60;;;;;;5087594;28;20386;-85
2022/08/21 03:52:42;;;;;;;71.67;14.80;;;17.50;98.10;;;;;;5065118;28;20406;-85
2022/08/21 03:55:08;;;;;;;74.77;19.20;;;17.50;97.10;;;;;;5082857;28;20405;-85
2022/08/21 03:57:34;;;;;;;71.37;18.77;;;17.40;97.80;;;;;;5086746;28;20184;-85
2022/08/21 03:59:59;;;;;;;73.17;19.40;;;17.50;97.70;;;;;;5087282;28;20243;-85
2022/08/21 04:02:25;;;;;;;74.67;17.60;;;17.40;98.40;;;;;;5086669;28;20559;-85
2022/08/21 04:04:51;;;;;;;74.77;22.23;;;17.40;98.20;;;;;;5086633;28;20172;-85
2022/08/21 04:07:17;;;;;;;76.70;18.73;;;17.40;98.30;;;;;;5085919;28;20196;-84
2022/08/21 04:09:43;;;;;;;77.00;18.37;;;17.40;97.80;;;;;;5086775;28;20152;-85
2022/08/21 04:12:09;;;;;;;75.23;21.03;;;17.40;97.90;;;;;;5086702;28;20402;-85
2022/08/21 04:14:34;;;;;;;73.47;21.17;;;17.30;98.60;;;;;;5085962;28;20574;-84
2022/08/21 04:17:00;;;;;;;75.30;22.10;;;17.30;98.80;;;;;;5086371;28;20543;-83
2022/08/21 04:19:26;;;;;;;74.53;25.20;;;17.30;98.70;;;;;;5067926;28;20175;-84
2022/08/21 04:21:52;;;;;;;77.97;21.70;;;17.30;98.90;;;;;;5068235;28;20171;-85
2022/08/21 04:24:19;;;;;;;74.43;22.43;;;17.30;99.40;;;;;;5068796;28;20422;-84
2022/08/21 04:26:44;;;;;;;77.87;25.40;;;17.30;98.70;;;;;;5080830;28;20203;-84
2022/08/21 04:29:11;;;;;;;75.90;23.73;;;17.30;98.60;;;;;;5085605;28;20794;-85
2022/08/21 04:31:37;;;;;;;75.90;24.87;;;17.30;98.70;;;;;;5080575;28;20578;-84
2022/08/21 04:34:04;;;;;;;75.43;22.60;;;17.30;98.60;;;;;;5080469;28;20398;-84
2022/08/21 04:36:31;;;;;;;75.00;24.60;;;17.20;98.60;;;;;;5085471;28;20195;-85
2022/08/21 04:38:56;;;;;;;72.37;14.70;;;17.20;98.20;;;;;;5084248;28;20402;-84
2022/08/21 04:41:22;;;;;;;78.87;27.37;;;17.20;98.10;;;;;;5085197;28;20413;-84
2022/08/21 04:43:49;;;;;;;77.70;26.57;;;17.20;99.10;;;;;;5080511;28;20219;-84
2022/08/21 04:46:18;;;;;;;76.70;24.17;;;17.20;99.00;;;;;;5084795;28;20184;-84
2022/08/21 04:48:44;;;;;;;76.40;25.07;;;17.10;99.90;;;;;;5085652;28;20447;-84
2022/08/21 04:51:36;;;;;;;78.50;32.10;;;17.10;99.60;;;;;;5085125;28;20423;-84
2022/08/21 04:54:10;;;;;;;78.47;32.83;;;17.10;99.60;;;;;;5064251;28;20172;-85
2022/08/21 04:56:45;;;;;;;75.90;28.67;;;17.10;99.90;;;;;;5085053;28;20417;-85
2022/08/21 04:59:24;;;;;;;77.00;28.00;;;17.00;99.90;;;;;;5080054;28;20410;-84
2022/08/21 05:01:51;;;;;;;74.90;28.57;;;17.10;99.90;;;;;;5080141;28;20391;-84
2022/08/21 05:04:21;;;;;;;80.17;31.73;;;17.20;99.10;;;;;;5080711;28;20437;-84
2022/08/21 05:06:48;;;;;;;79.03;34.67;;;17.10;99.50;;;;;;5062117;28;20626;-84
2022/08/21 05:09:18;;;;;;;78.43;32.20;;;17.20;99.90;;;;;;5067390;28;20855;-84
2022/08/21 05:11:44;;;;;;;82.77;32.67;;;17.10;99.90;;;;;;5085317;28;20467;-84
2022/08/21 05:14:11;;;;;;;78.70;34.77;;;17.20;99.90;;;;;;5066905;28;20413;-85
2022/08/21 05:16:37;;;;;;;79.00;32.70;;;17.20;99.90;;;;;;5084993;28;20507;-84
2022/08/21 05:19:04;;;;;;;79.80;34.03;;;17.20;99.90;;;;;;5067505;28;20855;-84
2022/08/21 05:21:30;;;;;;;80.60;29.60;;;17.20;99.90;;;;;;5080035;28;20406;-84
2022/08/21 05:23:55;;;;;;;79.93;32.57;;;17.30;99.90;;;;;;5086387;28;20424;-84
2022/08/21 05:26:21;;;;;;;78.43;34.33;;;17.30;99.90;;;;;;5085455;28;20180;-84
2022/08/21 05:28:47;;;;;;;76.60;29.23;;;17.30;99.90;;;;;;5067546;28;20191;-84
2022/08/21 05:31:12;;;;;;;77.27;29.03;;;17.30;99.90;;;;;;5085876;28;20733;-84
2022/08/21 05:33:38;;;;;;;82.80;29.63;;;17.30;99.90;;;;;;5085311;28;20179;-84
2022/08/21 05:36:04;;;;;;;77.27;28.60;;;17.40;99.90;;;;;;5085431;28;20204;-84
2022/08/21 05:38:29;;;;;;;74.80;22.63;;;17.40;99.90;;;;;;5085371;28;20199;-84
2022/08/21 05:40:55;;;;;;;74.63;22.73;;;17.40;99.90;;;;;;5085155;28;20173;-84
2022/08/21 05:43:21;;;;;;;72.80;19.20;;;17.40;99.90;;;;;;5085460;28;20164;-83
2022/08/21 05:45:47;;;;;;;76.57;20.90;;;17.40;99.90;;;;;;5061505;28;20582;-84
2022/08/21 05:48:20;;;;;;;76.33;17.83;;;17.40;99.90;;;;;;5084905;28;20187;-84
2022/08/21 05:50:47;;;;;;;72.90;23.73;;;17.50;99.90;;;;;;5067433;28;20394;-84
2022/08/21 05:53:15;;;;;;;72.40;19.27;;;17.50;99.90;;;;;;5084869;28;20398;-84
2022/08/21 05:55:41;;;;;;;74.30;24.63;;;17.50;99.90;;;;;;5084807;28;20394;-83
2022/08/21 05:58:07;;;;;;;78.53;21.60;;;17.50;99.90;;;;;;5066003;28;20445;-84
2022/08/21 06:00:33;;;;;;;75.37;14.47;;;17.40;99.90;;;;;;5065817;28;20403;-84
2022/08/21 06:03:00;;;;;;;71.30;15.77;;;17.40;99.90;;;;;;5067296;28;20175;-84
2022/08/21 06:05:26;;;;;;;73.57;18.13;;;17.50;99.90;;;;;;5062583;28;20787;-84
2022/08/21 06:07:52;;;;;;;72.77;16.93;;;17.50;99.90;;;;;;5060882;28;20450;-84
2022/08/21 06:10:18;;;;;;;74.00;17.90;;;17.60;99.90;;;;;;5084493;28;20390;-84
2022/08/21 06:12:44;;;;;;;76.07;16.67;;;17.50;99.90;;;;;;5083177;28;20492;-83
2022/08/21 06:15:09;;;;;;;75.10;18.17;;;17.60;99.90;;;;;;5084536;28;20398;-84
2022/08/21 06:17:35;;;;;;;74.20;19.83;;;17.60;99.90;;;;;;5066007;28;20188;-84
2022/08/21 06:20:01;;;;;;;75.20;17.87;;;17.70;99.90;;;;;;5084261;28;20409;-84
2022/08/21 06:22:28;;;;;;;74.43;17.23;;;17.60;99.90;;;;;;5083439;28;20537;-84
2022/08/21 06:24:54;;;;;;;73.83;18.47;;;17.70;99.90;;;;;;5065755;28;20438;-84
2022/08/21 06:27:20;;;;;;;73.30;19.10;;;17.70;99.90;;;;;;5084277;28;20433;-84
2022/08/21 06:29:45;;;;;;;71.73;19.83;;;17.80;99.90;;;;;;5083425;28;20171;-84
2022/08/21 06:32:12;;;;;;;77.07;20.63;;;17.80;99.90;;;;;;5065044;28;20450;-84
2022/08/21 06:34:40;;;;;;;74.67;22.20;;;17.90;99.90;;;;;;5065830;28;20171;-84
2022/08/21 06:37:07;;;;;;;78.30;21.10;;;17.80;99.90;;;;;;5065226;28;20418;-84
2022/08/21 06:39:33;;;;;;;76.43;16.50;;;17.90;99.90;;;;;;5082582;28;20402;-84
2022/08/21 06:41:59;;;;;;;71.43;15.60;;;17.90;99.90;;;;;;5064266;28;20406;-83
2022/08/21 06:44:25;;;;;;;72.73;16.43;;;17.90;99.90;;;;;;5059063;28;20417;-84
2022/08/21 06:46:51;;;;;;;69.47;12.80;;;18.00;99.90;;;;;;5065053;28;20437;-83
2022/08/21 06:49:16;;;;;;;70.43;10.93;;;18.10;99.90;;;;;;5084827;28;20446;-82
2022/08/21 06:51:42;;;;;;;75.40;13.07;;;18.00;98.50;;;;;;5085490;28;20160;-82
2022/08/21 06:54:08;;;;;;;80.73;11.90;;;18.00;99.10;;;;;;5085251;28;20164;-83
2022/08/21 06:56:36;;;;;;;70.70;14.47;;;18.00;99.10;;;;;;5085080;28;20305;-83
2022/08/21 06:59:03;;;;;;;69.57;10.60;;;18.00;99.10;;;;;;5078752;28;20546;-82
2022/08/21 07:01:28;;;;;;;78.20;10.93;;;18.10;98.50;;;;;;5061248;28;20426;-83
2022/08/21 07:03:54;;;;;;;69.17;7.30;;;18.10;97.20;;;;;;5087020;28;20402;-82
2022/08/21 07:06:20;;;;;;;73.40;6.83;;;18.30;94.60;;;;;;5082259;28;20194;-82
2022/08/21 07:08:45;;;;;;;68.50;7.20;;;18.40;90.10;;;;;;5063114;28;20200;-82
2022/08/21 07:11:17;;;;;;;73.70;7.80;;;18.40;90.60;;;;;;5081319;28;20162;-82
2022/08/21 07:13:43;;;;;;;67.67;6.77;;;18.40;90.70;;;;;;5079721;28;20155;-83
2022/08/21 07:16:10;;;;;;;72.27;6.90;;;18.40;92.60;;;;;;5079727;28;20419;-83
2022/08/21 07:18:36;;;;;;;71.27;8.10;;;18.50;91.90;;;;;;5062300;28;20472;-83
2022/08/21 07:21:04;;;;;;;69.57;6.37;;;18.50;92.10;;;;;;5080025;28;20413;-83
2022/08/21 07:23:35;;;;;;;69.93;7.03;;;18.60;90.80;;;;;;5080116;28;20398;-83
2022/08/21 07:26:00;;;;;;;68.77;5.70;;;18.60;87.60;;;;;;5079814;28;20465;-83
2022/08/21 07:28:27;;;;;;;74.47;6.70;;;18.60;85.00;;;;;;5084655;28;20888;-84
2022/08/21 07:30:56;;;;;;;68.97;6.77;;;18.60;83.70;;;;;;5084489;28;20413;-84
2022/08/21 07:33:23;;;;;;;70.30;5.93;;;18.70;83.60;;;;;;5084411;28;20425;-84
2022/08/21 07:35:48;;;;;;;68.90;6.17;;;18.80;82.90;;;;;;5079230;28;20398;-83
2022/08/21 07:38:14;;;;;;;69.13;8.00;;;18.80;79.30;;;;;;5060784;28;20781;-83
2022/08/21 07:40:40;;;;;;;66.57;7.57;;;19.00;75.00;;;;;;5079035;28;20171;-83
2022/08/21 07:43:06;;;;;;;71.40;8.60;;;19.00;75.30;;;;;;5078674;28;20172;-83
2022/08/21 07:45:32;;;;;;;70.50;8.40;;;19.10;70.10;;;;;;5078685;28;20172;-83
2022/08/21 07:47:58;;;;;;;66.30;5.67;;;19.10;70.00;;;;;;5078883;28;20449;-83
2022/08/21 07:50:25;;;;;;;67.03;7.13;;;19.10;70.80;;;;;;5060984;28;20917;-83
2022/08/21 07:52:50;;;;;;;67.83;7.23;;;19.20;66.00;;;;;;5078788;28;20170;-83
2022/08/21 07:55:19;;;;;;;68.80;8.33;;;19.30;62.00;;;;;;5061050;28;20425;-83
2022/08/21 07:57:46;;;;;;;69.43;7.70;;;19.40;63.70;;;;;;5084038;28;20594;-83
2022/08/21 08:00:15;;;;;;;67.93;7.83;;;19.50;62.20;;;;;;5080298;28;20411;-84
2022/08/21 08:02:44;;;;;;;70.07;9.50;;;19.50;57.20;;;;;;5084959;28;20410;-83
2022/08/21 08:05:11;;;;;;;70.57;11.30;;;19.60;49.50;;;;;;5067428;28;20410;-82
2022/08/21 08:07:37;;;;;;;68.40;10.17;;;19.70;48.30;;;;;;5068354;28;20634;-83
2022/08/21 08:10:06;;;;;;;74.13;12.30;;;19.80;41.20;;;;;;5085101;28;20398;-82
2022/08/21 08:12:33;;;;;;;69.70;10.23;;;19.90;39.60;;;;;;5066449;28;20557;-83
2022/08/21 08:15:00;;;;;;;71.27;8.83;;;19.90;38.10;;;;;;5085906;28;20956;-83
2022/08/21 08:17:26;;;;;;;73.27;8.63;;;20.00;32.10;;;;;;5087051;28;20452;-83
2022/08/21 08:19:53;;;;;;;69.40;5.90;;;19.90;30.40;;;;;;5068454;28;20479;-83
2022/08/21 08:22:21;;;;;;;68.07;6.13;;;20.00;32.00;;;;;;5086019;28;20453;-83
2022/08/21 08:24:48;;;;;;;70.97;5.33;;;20.10;31.30;;;;;;5086246;28;20407;-83
2022/08/21 08:27:14;;;;;;;74.03;5.00;;;20.20;28.90;;;;;;5085689;28;20423;-83
2022/08/21 08:29:40;;;;;;;73.53;4.50;;;20.20;28.70;;;;;;5086040;28;20399;-83
2022/08/21 08:32:09;;;;;;;71.00;5.40;;;20.30;27.10;;;;;;5086034;28;20486;-83
2022/08/21 08:34:36;;;;;;;74.90;6.17;;;20.30;27.10;;;;;;5071690;28;20404;-84
2022/08/21 08:37:03;;;;;;;72.83;6.47;;;20.40;29.90;;;;;;5085007;28;20461;-83
2022/08/21 08:39:29;;;;;;;72.43;5.20;;;20.40;30.80;;;;;;5085114;28;20413;-83
2022/08/21 08:42:09;;;;;;;69.73;4.47;;;20.50;28.30;;;;;;5087699;28;20423;-83
2022/08/21 08:44:35;;;;;;;70.47;4.83;;;20.60;26.50;;;;;;5085424;28;20406;-83
2022/08/21 08:47:01;;;;;;;67.27;5.10;;;20.60;26.60;;;;;;5086252;28;20429;-83
2022/08/21 08:49:31;;;;;;;69.67;4.30;;;20.60;26.50;;;;;;5085640;28;20450;-83
2022/08/21 08:52:21;;;;;;;69.30;4.73;;;20.70;26.20;;;;;;5085776;28;20403;-83
2022/08/21 08:55:01;;;;;;;69.17;5.37;;;20.80;23.90;;;;;;5085337;28;20885;-83
2022/08/21 08:57:27;;;;;;;73.23;5.37;;;20.80;22.50;;;;;;5072049;28;20462;-83
2022/08/21 08:59:57;;;;;;;71.97;4.03;;;20.80;24.00;;;;;;5088473;28;20458;-83
2022/08/21 09:02:23;;;;;;;70.60;4.80;;;20.90;22.20;;;;;;5086261;28;20206;-83
2022/08/21 09:04:51;;;;;;;68.10;4.10;;;21.00;23.90;;;;;;5069103;28;20406;-83
2022/08/21 09:07:31;;;;;;;71.50;4.23;;;21.10;23.10;;;;;;5089344;28;20415;-83
2022/08/21 09:10:42;;;;;;;70.97;3.73;;;21.10;20.30;;;;;;5084522;28;20416;-83
2022/08/21 09:13:23;;;;;;;69.90;3.97;;;21.20;13.80;;;;;;5067941;28;20431;-83
2022/08/21 09:16:15;;;;;;;69.30;3.87;;;21.20;15.60;;;;;;5067997;28;20406;-83
2022/08/21 09:18:50;;;;;;;70.73;4.00;;;21.20;15.20;;;;;;5067212;28;20441;-82
2022/08/21 09:21:27;;;;;;;73.67;5.07;;;21.30;14.10;;;;;;5085227;28;20413;-83
2022/08/21 09:24:31;;;;;;;70.83;3.83;;;21.50;18.50;;;;;;5083859;28;20410;-83
2022/08/21 09:27:08;;;;;;;76.30;4.10;;;21.60;10.80;;;;;;5085064;28;20491;-83
2022/08/21 09:29:38;;;;;;;67.93;3.10;;;21.70;11.90;;;;;;5085353;28;20445;-83
2022/08/21 09:32:21;;;;;;;69.03;3.50;;;21.70;6.40;;;;;;5066920;28;20441;-83
2022/08/21 09:34:57;;;;;;;66.70;3.23;;;21.80;7.70;;;;;;5083800;28;20882;-83
2022/08/21 09:37:23;;;;;;;69.37;3.57;;;22.00;1.00;;;;;;5085968;28;20437;-82
2022/08/21 09:39:49;;;;;;;68.20;3.00;;;22.00;2.20;;;;;;5071772;28;20426;-83
2022/08/21 09:42:26;;;;;;;75.10;4.30;;;22.10;1.60;;;;;;5088496;28;20424;-82
2022/08/21 09:45:15;;;;;;;68.17;3.23;;;22.20;3.60;;;;;;5083616;28;20160;-82
2022/08/21 09:47:41;;;;;;;69.47;2.70;;;22.30;1.00;;;;;;5084875;28;20489;-82
2022/08/21 09:50:14;;;;;;;68.60;3.07;;;22.40;1.00;;;;;;5065783;28;20402;-82
2022/08/21 09:52:51;;;;;;;69.40;3.10;;;22.50;1.00;;;;;;5083688;28;20393;-82
2022/08/21 09:58:35;;;;;;;66.90;3.40;;;22.80;1.00;;;;;;5052155;28;20402;-83
2022/08/21 10:01:04;;;;;;;72.90;3.73;;;23.10;1.00;;;;;;5085085;28;20885;-82
2022/08/21 10:03:30;;;;;;;75.30;2.80;;;23.30;1.00;;;;;;5084031;28;20464;-82
2022/08/21 10:06:05;;;;;;;69.00;3.53;;;23.30;1.00;;;;;;5069876;28;20402;-83
2022/08/21 10:08:32;;;;;;;68.77;2.90;;;23.40;1.00;;;;;;5087422;28;20512;-83
2022/08/21 10:11:13;;;;;;;68.43;3.00;;;23.40;1.00;;;;;;5082155;28;20401;-82
2022/08/21 10:13:48;;;;;;;66.37;2.80;;;23.60;1.00;;;;;;5083392;28;20370;-82
2022/08/21 10:16:23;;;;;;;70.37;3.57;;;23.60;1.00;;;;;;5064530;28;20880;-83
2022/08/21 10:19:15;;;;;;;73.40;3.20;;;23.80;1.00;;;;;;5065215;28;20413;-82
2022/08/21 10:21:57;;;;;;;68.43;2.83;;;23.90;1.00;;;;;;5083485;28;20382;-83
2022/08/21 10:24:36;;;;;;;71.50;3.03;;;24.20;1.00;;;;;;5086715;28;20383;-83
2022/08/21 10:27:26;;;;;;;69.40;2.70;;;24.40;1.00;;;;;;5063638;28;20425;-82
2022/08/21 10:30:03;;;;;;;70.10;3.00;;;24.30;1.00;;;;;;5080786;28;20417;-83
2022/08/21 10:32:50;;;;;;;72.63;3.10;;;24.40;1.00;;;;;;5082585;28;20421;-82
2022/08/21 10:35:23;;;;;;;72.93;3.30;;;24.60;1.00;;;;;;5063268;28;20879;-83
2022/08/21 10:37:55;;;;;;;68.07;3.10;;;25.00;1.00;;;;;;5080568;28;20416;-83
2022/08/21 10:40:49;;;;;;;67.37;3.00;;;25.00;1.00;;;;;;5082829;28;20379;-82
2022/08/21 10:43:36;;;;;;;66.40;2.30;;;25.30;1.00;;;;;;5063944;28;20397;-83
2022/08/21 10:46:23;;;;;;;68.90;2.83;;;25.70;1.00;;;;;;5081650;28;20392;-82
2022/08/21 10:48:58;;;;;;;71.40;3.23;;;26.00;1.00;;;;;;5080809;28;20451;-82
2022/08/21 10:51:42;;;;;;;67.43;3.63;;;26.20;1.00;;;;;;5063084;28;20514;-82
2022/08/21 10:54:29;;;;;;;67.93;2.87;;;26.30;1.00;;;;;;5068635;28;20397;-82
2022/08/21 10:57:02;;;;;;;69.37;3.00;;;26.30;1.00;;;;;;5086966;28;20429;-83
2022/08/21 10:59:39;;;;;;;68.20;2.80;;;26.30;1.00;;;;;;5065604;28;20410;-83
2022/08/21 11:02:08;;;;;;;71.83;2.90;;;26.30;1.00;;;;;;5064709;28;20406;-82
2022/08/21 11:04:38;;;;;;;68.70;2.30;;;26.40;1.00;;;;;;5083962;28;20418;-82
2022/08/21 11:07:12;;;;;;;71.83;2.60;;;26.50;1.00;;;;;;5082822;28;20428;-83
2022/08/21 11:09:39;;;;;;;68.00;2.57;;;26.60;1.00;;;;;;5067770;28;20457;-82
2022/08/21 11:12:24;;;;;;;71.77;4.10;;;26.40;1.00;;;;;;5088425;28;20406;-83
2022/08/21 11:15:11;;;;;;;68.77;2.60;;;26.40;1.00;;;;;;5084860;28;20406;-83
2022/08/21 11:17:47;;;;;;;69.00;2.53;;;26.70;1.00;;;;;;5088474;28;20421;-83
2022/08/21 11:20:27;;;;;;;70.00;2.30;;;26.70;1.00;;;;;;5070724;28;20743;-83
2022/08/21 11:23:24;;;;;;;66.80;2.73;;;26.80;1.00;;;;;;5089695;28;20437;-83
2022/08/21 11:26:01;;;;;;;68.93;2.57;;;27.00;1.00;;;;;;5069790;28;20478;-83
2022/08/21 11:28:34;;;;;;;69.83;2.73;;;27.00;1.00;;;;;;5088232;28;20445;-83
2022/08/21 11:31:28;;;;;;;67.33;2.43;;;27.00;1.00;;;;;;5087247;28;20411;-84
2022/08/21 11:34:15;;;;;;;68.70;2.20;;;27.30;1.00;;;;;;5065351;28;20454;-82
2022/08/21 11:36:55;;;;;;;66.60;2.13;;;27.50;1.00;;;;;;5084362;28;20437;-82
2022/08/21 11:39:33;;;;;;;69.57;2.90;;;27.40;1.00;;;;;;5087593;28;20393;-83
2022/08/21 11:42:01;;;;;;;70.10;2.40;;;27.30;1.00;;;;;;5071472;28;20390;-83
2022/08/21 11:44:46;;;;;;;66.07;2.20;;;27.40;1.00;;;;;;5088376;28;20402;-83
2022/08/21 11:47:24;;;;;;;68.07;2.57;;;27.30;1.00;;;;;;5088951;28;20925;-83
2022/08/21 11:50:12;;;;;;;67.83;2.83;;;27.40;1.00;;;;;;5074160;28;20487;-83
2022/08/21 11:52:43;;;;;;;69.20;2.60;;;27.40;1.00;;;;;;5091779;28;20379;-83
2022/08/21 11:55:27;;;;;;;69.70;2.57;;;27.20;1.00;;;;;;5091823;28;20374;-83
2022/08/21 11:57:53;;;;;;;72.70;2.50;;;27.60;1.00;;;;;;5074573;28;20422;-83
2022/08/21 12:00:30;;;;;;;67.60;2.80;;;27.70;1.00;;;;;;5091059;28;20903;-83
2022/08/21 12:03:06;;;;;;;69.67;2.93;;;27.60;1.00;;;;;;5092983;28;20163;-83
2022/08/21 12:05:36;;;;;;;70.37;3.00;;;27.80;1.00;;;;;;5092352;28;20386;-83
2022/08/21 12:08:04;;;;;;;70.30;3.70;;;28.00;1.00;;;;;;5091515;28;20453;-83
2022/08/21 12:10:36;;;;;;;67.67;3.00;;;28.20;1.00;;;;;;5090773;28;20444;-83
2022/08/21 12:13:26;;;;;;;65.57;2.07;;;27.90;1.00;;;;;;5092413;28;20398;-83
2022/08/21 12:15:52;;;;;;;67.30;2.70;;;27.70;1.00;;;;;;5088220;28;20383;-83
2022/08/21 12:18:28;;;;;;;68.50;4.30;;;27.90;1.00;;;;;;5091055;28;20408;-83
2022/08/21 12:21:16;;;;;;;68.27;4.20;;;28.10;1.00;;;;;;5086955;28;20152;-83
2022/08/21 12:23:47;;;;;;;67.13;3.43;;;28.20;1.00;;;;;;5087076;28;20935;-83
2022/08/21 12:26:13;;;;;;;68.50;3.53;;;28.20;1.00;;;;;;5069861;28;20431;-83
2022/08/21 12:28:39;;;;;;;69.73;3.23;;;28.40;1.00;;;;;;5088027;28;20442;-83
2022/08/21 12:31:17;;;;;;;70.17;3.77;;;28.50;1.00;;;;;;5088435;28;20171;-83
2022/08/21 12:33:52;;;;;;;69.17;3.33;;;28.60;1.00;;;;;;5088132;28;20463;-83
2022/08/21 12:36:25;;;;;;;70.00;3.00;;;28.50;1.00;;;;;;5088361;28;20443;-83
2022/08/21 12:39:10;;;;;;;68.77;2.80;;;28.60;1.00;;;;;;5088791;28;20371;-83
2022/08/21 12:41:51;;;;;;;67.40;2.70;;;28.50;1.00;;;;;;5091069;28;20389;-83
2022/08/21 12:44:26;;;;;;;65.83;2.20;;;28.40;1.00;;;;;;5086951;28;20390;-83
2022/08/21 12:46:58;;;;;;;68.87;2.30;;;28.30;1.00;;;;;;5073690;28;20434;-83
2022/08/21 12:49:52;;;;;;;70.00;2.50;;;28.10;1.00;;;;;;5086055;28;20422;-83
2022/08/21 12:52:34;;;;;;;70.83;2.37;;;28.10;1.00;;;;;;5087071;28;20390;-83